HAZ3221 RCTP-ZSWZ
Flight info
| Callsign | HAZ3221 |
|---|---|
| Flight time | 0h 55m |
| Altitude | 29000 |
| Route | PIANO1C PIANO L3 VIOLA R596 OKATO OKATO1F |
| Aircraft | A339/H-SADE1E2E3GHIJ3J5M1P2RWXY/LB2D1 |
Departure
| Time | 2026-05-04 08:50 |
|---|---|
| Airport | Taiwan Taoyuan International Airport (RCTP) |
Arrival
| Time | 2026-05-04 09:46 |
|---|---|
| Airport | Wenzhou Longwan International Airport (ZSWZ) |
| Time | Latitude | Longitude | Altitude | Speed | Heading |
|---|---|---|---|---|---|
| 2026-05-04 08:20 | 25.07590 | 121.23430 | 123 ft | 0 kts | 320° |
| 2026-05-04 08:40 | 25.07560 | 121.23455 | 125 ft | 2 kts | 322° |
| 2026-05-04 08:40 | 25.07548 | 121.23465 | 125 ft | 2 kts | 322° |
| 2026-05-04 08:40 | 25.07535 | 121.23475 | 124 ft | 2 kts | 323° |
| 2026-05-04 08:41 | 25.07523 | 121.23485 | 123 ft | 2 kts | 323° |
| 2026-05-04 08:41 | 25.07515 | 121.23492 | 123 ft | 0 kts | 323° |
| 2026-05-04 08:41 | 25.07506 | 121.23503 | 123 ft | 2 kts | 279° |
| 2026-05-04 08:41 | 25.07507 | 121.23518 | 123 ft | 1 kts | 235° |
| 2026-05-04 08:42 | 25.07512 | 121.23524 | 123 ft | 1 kts | 229° |
| 2026-05-04 08:42 | 25.07512 | 121.23525 | 123 ft | 0 kts | 229° |
| 2026-05-04 08:43 | 25.07503 | 121.23513 | 123 ft | 4 kts | 229° |
| 2026-05-04 08:44 | 25.07471 | 121.23472 | 123 ft | 9 kts | 229° |
| 2026-05-04 08:44 | 25.07417 | 121.23402 | 123 ft | 13 kts | 229° |
| 2026-05-04 08:46 | 25.06988 | 121.23180 | 123 ft | 13 kts | 228° |
| 2026-05-04 08:46 | 25.06916 | 121.23089 | 123 ft | 17 kts | 229° |
| 2026-05-04 08:46 | 25.06837 | 121.22988 | 123 ft | 17 kts | 228° |
| 2026-05-04 08:46 | 25.06755 | 121.22884 | 123 ft | 17 kts | 229° |
| 2026-05-04 08:47 | 25.06673 | 121.22781 | 123 ft | 18 kts | 229° |
| 2026-05-04 08:47 | 25.06590 | 121.22674 | 123 ft | 18 kts | 229° |
| 2026-05-04 08:47 | 25.06500 | 121.22560 | 123 ft | 20 kts | 229° |
| 2026-05-04 08:47 | 25.06405 | 121.22438 | 123 ft | 21 kts | 229° |
| 2026-05-04 08:48 | 25.06310 | 121.22317 | 123 ft | 20 kts | 229° |
| 2026-05-04 08:48 | 25.06226 | 121.22244 | 123 ft | 9 kts | 173° |
| 2026-05-04 08:48 | 25.06179 | 121.22274 | 123 ft | 3 kts | 140° |
| 2026-05-04 08:48 | 25.06155 | 121.22296 | 123 ft | 6 kts | 141° |
| 2026-05-04 08:49 | 25.06108 | 121.22338 | 123 ft | 10 kts | 137° |
| 2026-05-04 08:50 | 25.08213 | 121.25021 | 716 ft | 170 kts | 49° |
| 2026-05-04 08:50 | 25.08753 | 121.26108 | 1534 ft | 161 kts | 83° |
| 2026-05-04 08:51 | 25.08498 | 121.27272 | 2231 ft | 162 kts | 105° |
| 2026-05-04 08:51 | 25.08296 | 121.28484 | 2516 ft | 169 kts | 74° |
| 2026-05-04 08:51 | 25.08948 | 121.29602 | 2804 ft | 186 kts | 37° |
| 2026-05-04 08:51 | 25.10248 | 121.30049 | 3086 ft | 214 kts | 3° |
| 2026-05-04 08:52 | 25.11797 | 121.29836 | 3414 ft | 233 kts | 2° |
| 2026-05-04 08:52 | 25.13469 | 121.29977 | 3770 ft | 247 kts | 9° |
| 2026-05-04 08:52 | 25.15236 | 121.29820 | 4171 ft | 270 kts | 344° |
| 2026-05-04 08:52 | 25.16982 | 121.29031 | 4850 ft | 274 kts | 345° |
| 2026-05-04 08:53 | 25.18851 | 121.28826 | 5538 ft | 271 kts | 4° |
| 2026-05-04 08:54 | 25.33016 | 121.28421 | 10347 ft | 298 kts | 352° |
| 2026-05-04 08:55 | 25.35160 | 121.28330 | 10818 ft | 313 kts | 352° |
| 2026-05-04 08:55 | 25.37380 | 121.28334 | 11128 ft | 335 kts | 3° |
| 2026-05-04 08:55 | 25.39619 | 121.29251 | 11375 ft | 366 kts | 30° |
| 2026-05-04 08:55 | 25.41525 | 121.31228 | 11694 ft | 387 kts | 46° |
| 2026-05-04 08:57 | 25.54442 | 121.48097 | 15745 ft | 426 kts | 46° |
| 2026-05-04 09:01 | 25.83914 | 121.84485 | 22682 ft | 475 kts | 33° |
| 2026-05-04 09:01 | 25.86566 | 121.86655 | 23124 ft | 477 kts | 31° |
| 2026-05-04 09:01 | 25.89244 | 121.88784 | 23565 ft | 480 kts | 31° |
| 2026-05-04 09:01 | 25.91970 | 121.90947 | 24006 ft | 483 kts | 31° |
| 2026-05-04 09:02 | 25.94712 | 121.93143 | 24454 ft | 486 kts | 31° |
| 2026-05-04 09:02 | 25.97456 | 121.95354 | 24876 ft | 490 kts | 31° |
| 2026-05-04 09:02 | 26.00236 | 121.97605 | 25246 ft | 494 kts | 32° |
| 2026-05-04 09:02 | 26.02984 | 121.99830 | 25676 ft | 496 kts | 30° |
| 2026-05-04 09:03 | 26.05822 | 122.02078 | 25985 ft | 501 kts | 30° |
| 2026-05-04 09:03 | 26.08666 | 122.04293 | 26360 ft | 504 kts | 30° |
| 2026-05-04 09:03 | 26.11573 | 122.06555 | 26789 ft | 506 kts | 30° |
| 2026-05-04 09:03 | 26.14466 | 122.08811 | 27151 ft | 510 kts | 30° |
| 2026-05-04 09:04 | 26.17356 | 122.11068 | 27492 ft | 513 kts | 30° |
| 2026-05-04 09:04 | 26.20292 | 122.13366 | 27851 ft | 517 kts | 29° |
| 2026-05-04 09:04 | 26.23228 | 122.15666 | 28115 ft | 522 kts | 30° |
| 2026-05-04 09:04 | 26.26223 | 122.18015 | 28468 ft | 525 kts | 30° |
| 2026-05-04 09:05 | 26.29186 | 122.20341 | 28899 ft | 526 kts | 29° |
| 2026-05-04 09:05 | 26.32187 | 122.22703 | 29149 ft | 527 kts | 29° |
| 2026-05-04 09:05 | 26.35150 | 122.25036 | 29146 ft | 525 kts | 29° |
| 2026-05-04 09:06 | 26.41122 | 122.29734 | 29154 ft | 520 kts | 30° |
| 2026-05-04 09:08 | 26.64683 | 122.48334 | 29152 ft | 520 kts | 29° |
| 2026-05-04 09:08 | 26.70568 | 122.52992 | 29149 ft | 521 kts | 30° |
| 2026-05-04 09:09 | 26.76495 | 122.57693 | 29154 ft | 522 kts | 29° |
| 2026-05-04 09:09 | 26.82407 | 122.62389 | 29150 ft | 522 kts | 29° |
| 2026-05-04 09:10 | 26.88333 | 122.67104 | 29142 ft | 522 kts | 30° |
| 2026-05-04 09:10 | 26.94242 | 122.71806 | 29145 ft | 522 kts | 30° |
| 2026-05-04 09:11 | 27.00143 | 122.76510 | 29149 ft | 526 kts | 30° |
| 2026-05-04 09:11 | 27.06122 | 122.81290 | 29151 ft | 526 kts | 30° |
| 2026-05-04 09:12 | 27.12051 | 122.86028 | 29146 ft | 527 kts | 29° |
| 2026-05-04 09:14 | 27.36889 | 122.87974 | 29142 ft | 451 kts | 321° |
| 2026-05-04 09:14 | 27.39386 | 122.86018 | 29138 ft | 431 kts | 308° |
| 2026-05-04 09:14 | 27.41353 | 122.83553 | 29144 ft | 415 kts | 296° |
| 2026-05-04 09:14 | 27.42741 | 122.80778 | 29150 ft | 402 kts | 285° |
| 2026-05-04 09:15 | 27.43552 | 122.77846 | 29133 ft | 392 kts | 275° |
| 2026-05-04 09:15 | 27.43833 | 122.71814 | 29149 ft | 388 kts | 266° |
| 2026-05-04 09:17 | 27.44008 | 122.44898 | 27921 ft | 381 kts | 269° |
| 2026-05-04 09:18 | 27.44229 | 122.41962 | 27674 ft | 381 kts | 271° |
| 2026-05-04 09:18 | 27.44562 | 122.39014 | 27425 ft | 382 kts | 273° |
| 2026-05-04 09:18 | 27.45011 | 122.36085 | 27176 ft | 383 kts | 276° |
| 2026-05-04 09:18 | 27.45523 | 122.33132 | 26937 ft | 382 kts | 276° |
| 2026-05-04 09:19 | 27.46032 | 122.30205 | 26690 ft | 381 kts | 276° |
| 2026-05-04 09:19 | 27.46542 | 122.27280 | 26444 ft | 381 kts | 276° |
| 2026-05-04 09:19 | 27.47049 | 122.24372 | 26201 ft | 379 kts | 276° |
| 2026-05-04 09:19 | 27.47551 | 122.21503 | 25948 ft | 377 kts | 274° |
| 2026-05-04 09:20 | 27.48055 | 122.18616 | 25696 ft | 377 kts | 274° |
| 2026-05-04 09:20 | 27.48557 | 122.15713 | 25447 ft | 376 kts | 276° |
| 2026-05-04 09:20 | 27.49050 | 122.12882 | 25200 ft | 375 kts | 276° |
| 2026-05-04 09:20 | 27.49553 | 122.09981 | 24958 ft | 374 kts | 276° |
| 2026-05-04 09:21 | 27.50046 | 122.07124 | 24720 ft | 373 kts | 275° |
| 2026-05-04 09:21 | 27.50542 | 122.04259 | 24495 ft | 371 kts | 276° |
| 2026-05-04 09:21 | 27.51031 | 122.01418 | 24191 ft | 369 kts | 277° |
| 2026-05-04 09:21 | 27.51520 | 121.98614 | 23820 ft | 368 kts | 276° |
| 2026-05-04 09:22 | 27.52006 | 121.95788 | 23368 ft | 366 kts | 277° |
| 2026-05-04 09:22 | 27.52482 | 121.93022 | 22979 ft | 363 kts | 277° |
| 2026-05-04 09:22 | 27.52964 | 121.90220 | 22537 ft | 362 kts | 277° |
| 2026-05-04 09:22 | 27.53437 | 121.87479 | 22103 ft | 360 kts | 277° |
| 2026-05-04 09:23 | 27.53915 | 121.84710 | 21644 ft | 359 kts | 277° |
| 2026-05-04 09:23 | 27.54390 | 121.81939 | 21167 ft | 359 kts | 277° |
| 2026-05-04 09:23 | 27.54859 | 121.79215 | 20896 ft | 353 kts | 277° |
| 2026-05-04 09:23 | 27.55316 | 121.76550 | 20851 ft | 343 kts | 277° |
| 2026-05-04 09:25 | 27.58035 | 121.60619 | 20850 ft | 257 kts | 277° |
| 2026-05-04 09:25 | 27.58371 | 121.58624 | 20841 ft | 258 kts | 277° |
| 2026-05-04 09:26 | 27.58709 | 121.56638 | 20837 ft | 257 kts | 277° |
| 2026-05-04 09:26 | 27.59053 | 121.54679 | 20648 ft | 254 kts | 277° |
| 2026-05-04 09:26 | 27.59392 | 121.52742 | 20333 ft | 254 kts | 277° |
| 2026-05-04 09:26 | 27.59730 | 121.50809 | 20039 ft | 254 kts | 277° |
| 2026-05-04 09:27 | 27.60068 | 121.48870 | 19749 ft | 253 kts | 277° |
| 2026-05-04 09:27 | 27.60404 | 121.46931 | 19493 ft | 251 kts | 277° |
| 2026-05-04 09:27 | 27.60739 | 121.45010 | 19207 ft | 250 kts | 277° |
| 2026-05-04 09:27 | 27.61075 | 121.43083 | 18899 ft | 250 kts | 277° |
| 2026-05-04 09:28 | 27.61408 | 121.41172 | 18617 ft | 249 kts | 277° |
| 2026-05-04 09:28 | 27.61737 | 121.39265 | 18332 ft | 249 kts | 278° |
| 2026-05-04 09:28 | 27.62067 | 121.37367 | 18154 ft | 246 kts | 278° |
| 2026-05-04 09:28 | 27.62395 | 121.35468 | 18146 ft | 248 kts | 278° |
| 2026-05-04 09:29 | 27.62724 | 121.33576 | 18148 ft | 249 kts | 277° |
| 2026-05-04 09:29 | 27.63058 | 121.31650 | 18150 ft | 249 kts | 277° |
| 2026-05-04 09:29 | 27.63384 | 121.29755 | 18155 ft | 248 kts | 277° |
| 2026-05-04 09:29 | 27.63711 | 121.27851 | 18155 ft | 248 kts | 278° |
| 2026-05-04 09:30 | 27.64045 | 121.25916 | 18149 ft | 250 kts | 278° |
| 2026-05-04 09:30 | 27.64377 | 121.24004 | 18146 ft | 251 kts | 277° |
| 2026-05-04 09:30 | 27.64711 | 121.22063 | 18150 ft | 250 kts | 277° |
| 2026-05-04 09:30 | 27.65037 | 121.20164 | 18159 ft | 250 kts | 278° |
| 2026-05-04 09:31 | 27.65368 | 121.18224 | 18155 ft | 250 kts | 278° |
| 2026-05-04 09:31 | 27.65696 | 121.16303 | 18146 ft | 251 kts | 278° |
| 2026-05-04 09:31 | 27.66030 | 121.14378 | 18137 ft | 250 kts | 278° |
| 2026-05-04 09:31 | 27.66247 | 121.12459 | 18139 ft | 250 kts | 271° |
| 2026-05-04 09:32 | 27.66233 | 121.10504 | 18073 ft | 246 kts | 266° |
| 2026-05-04 09:32 | 27.66138 | 121.08617 | 17600 ft | 247 kts | 265° |
| 2026-05-04 09:34 | 27.65311 | 120.93845 | 12686 ft | 276 kts | 268° |
| 2026-05-04 09:34 | 27.65195 | 120.91724 | 12170 ft | 273 kts | 267° |
| 2026-05-04 09:34 | 27.65062 | 120.89512 | 11422 ft | 297 kts | 268° |
| 2026-05-04 09:34 | 27.64920 | 120.87096 | 10618 ft | 321 kts | 268° |
| 2026-05-04 09:35 | 27.64751 | 120.84622 | 9805 ft | 320 kts | 264° |
| 2026-05-04 09:35 | 27.64086 | 120.82243 | 8986 ft | 324 kts | 242° |
| 2026-05-04 09:35 | 27.62663 | 120.80311 | 8176 ft | 326 kts | 225° |
| 2026-05-04 09:35 | 27.60987 | 120.78641 | 7377 ft | 326 kts | 221° |
| 2026-05-04 09:37 | 27.61396 | 120.66264 | 3038 ft | 259 kts | 357° |
| 2026-05-04 09:37 | 27.63115 | 120.66400 | 3039 ft | 237 kts | 18° |
| 2026-05-04 09:38 | 27.64571 | 120.67091 | 3036 ft | 218 kts | 36° |
| 2026-05-04 09:38 | 27.65698 | 120.68102 | 3028 ft | 198 kts | 44° |
| 2026-05-04 09:38 | 27.66671 | 120.69122 | 3046 ft | 183 kts | 45° |
| 2026-05-04 09:38 | 27.67563 | 120.70065 | 3046 ft | 164 kts | 45° |
| 2026-05-04 09:39 | 27.68345 | 120.70905 | 3022 ft | 150 kts | 47° |
| 2026-05-04 09:39 | 27.69090 | 120.71707 | 3037 ft | 149 kts | 43° |
| 2026-05-04 09:39 | 27.69923 | 120.72431 | 3044 ft | 149 kts | 37° |
| 2026-05-04 09:39 | 27.70805 | 120.73064 | 3042 ft | 150 kts | 32° |
| 2026-05-04 09:40 | 27.71718 | 120.73647 | 3046 ft | 150 kts | 31° |
| 2026-05-04 09:40 | 27.72633 | 120.74210 | 3050 ft | 149 kts | 31° |
| 2026-05-04 09:40 | 27.73551 | 120.74768 | 3050 ft | 149 kts | 31° |
| 2026-05-04 09:40 | 27.74466 | 120.75322 | 3052 ft | 149 kts | 30° |
| 2026-05-04 09:41 | 27.75386 | 120.75877 | 3054 ft | 149 kts | 30° |
| 2026-05-04 09:42 | 27.81917 | 120.79820 | 1723 ft | 155 kts | 30° |
| 2026-05-04 09:43 | 27.82865 | 120.80393 | 1521 ft | 154 kts | 30° |
| 2026-05-04 09:43 | 27.83818 | 120.80969 | 1300 ft | 154 kts | 30° |
| 2026-05-04 09:43 | 27.84760 | 120.81540 | 1094 ft | 154 kts | 30° |
| 2026-05-04 09:43 | 27.85703 | 120.82130 | 887 ft | 154 kts | 30° |
| 2026-05-04 09:44 | 27.86647 | 120.82719 | 682 ft | 155 kts | 28° |
| 2026-05-04 09:44 | 27.87617 | 120.83267 | 480 ft | 155 kts | 28° |
| 2026-05-04 09:44 | 27.88566 | 120.83830 | 319 ft | 154 kts | 29° |
| 2026-05-04 09:46 | 27.91531 | 120.85302 | 40 ft | 7 kts | 271° |
| 2026-05-04 09:46 | 27.91552 | 120.85243 | 40 ft | 8 kts | 298° |
| 2026-05-04 09:46 | 27.91584 | 120.85175 | 40 ft | 10 kts | 298° |
| 2026-05-04 09:47 | 27.91618 | 120.85102 | 41 ft | 10 kts | 298° |
| 2026-05-04 09:47 | 27.91635 | 120.85036 | 43 ft | 6 kts | 246° |
| 2026-05-04 09:49 | 27.91612 | 120.84923 | 44 ft | 0 kts | 297° |